This is the latest recevied weather packets stored in our database for station/object DL3GCR-10. If no packets are shown the sender has not sent any weather packets the latest 10 day(s).
| Time | Temp. | Humidity | Pressure | Rain* | Wind** | Luminosity | Snow |
|---|---|---|---|---|---|---|---|
| 1777837934 | 17.22° C | 39% | 1016.5 hPa | - | - | - | - |
| 1777837033 | 17.22° C | 42% | 1016.4 hPa | - | - | - | - |
| 1777835233 | 18.33° C | 39% | 1016.8 hPa | - | - | - | - |
| 1777833433 | 18.89° C | 36% | 1016.7 hPa | - | - | - | - |
| 1777832533 | 18.89° C | 35% | 1016.6 hPa | - | - | - | - |
| 1777828031 | 20.56° C | 32% | 1016.4 hPa | - | - | - | - |
| 1777827130 | 20.56° C | 32% | 1016.4 hPa | - | - | - | - |
| 1777824435 | 21.67° C | 30% | 1016.2 hPa | - | - | - | - |
| 1777821734 | 23.33° C | 28% | 1015.5 hPa | - | - | - | - |
| 1777819934 | 24.44° C | 31% | 1014.9 hPa | - | - | - | - |
| 1777818133 | 23.89° C | 31% | 1015.1 hPa | - | - | - | - |
| 1777815432 | 24.44° C | 29% | 1015.4 hPa | - | - | - | - |
| 1777813632 | 24.44° C | 28% | 1015.6 hPa | - | - | - | - |
| 1777812732 | 24.44° C | 31% | 1015.7 hPa | - | - | - | - |
| 1777811831 | 24.44° C | 34% | 1015.7 hPa | - | - | - | - |
| 1777810931 | 23.89° C | 33% | 1015.9 hPa | - | - | - | - |
| 1777810031 | 23.33° C | 35% | 1015.9 hPa | - | - | - | - |
| 1777809131 | 22.22° C | 35% | 1016 hPa | - | - | - | - |
| 1777808231 | 21.67° C | 40% | 1016.3 hPa | - | - | - | - |
| 1777807331 | 21.11° C | 40% | 1016.3 hPa | - | - | - | - |
| 1777806430 | 21.11° C | 37% | 1016.5 hPa | - | - | - | - |
| 1777804630 | 21.11° C | 41% | 1016.3 hPa | - | - | - | - |
| 1777803737 | 20.56° C | 39% | 1016.4 hPa | - | - | - | - |
| 1777802837 | 20.56° C | 42% | 1016.7 hPa | - | - | - | - |
| 1777801037 | 20° C | 47% | 1017.1 hPa | - | - | - | - |
* Rain since midnight (hover to see other rain measurements)
** Current wind speed in m/s (hover to see current wind gust speed)